Terminal Aerodrome Forecast
Issued by NWS

Home | Current Version | Previous Version | Text Only | Print | Product List | Glossary On
Versions: 1 2 3 4 5 6 7 8 9 10 11 12 13 14 15 16 17 18 19 20 21
000
FTAK31 PAFA 270539
TAFATA
TAF
PATA 270539Z 2706/2806 32006KT P6SM -RA FEW030 OVC045
     FM271200 VRB03KT P6SM MIFG SCT020 SCT040
     FM271400 00000KT 1SM BR SCT010
     FM272000 VRB03KT P6SM FEW020=

USA.gov is the U.S. government's official web portal to all federal, state and local government web resources and services.